Terminal Aerodrome Forecast
Issued by NWS

Home | Current Version | Previous Version | Text Only | Print | Product List | Glossary On
Versions: 1 2 3 4 5 6 7 8 9 10 11 12 13 14
000
FTUS43 KOAX 012300
TAFCDR
TAF
KCDR 012339Z 0200/0224 33011KT P6SM VCSH SCT050 BKN100
     FM020500 29005KT P6SM SCT150
     FM021900 31013G20KT P6SM SCT200=

USA.gov is the U.S. government's official web portal to all federal, state and local government web resources and services.